createdAt,value
2018-03-24T00:01:35.960Z,10.27
2018-03-24T00:04:05.878Z,11.00
2018-03-24T00:06:35.689Z,10.40
2018-03-24T00:09:05.612Z,10.70
2018-03-24T00:11:35.374Z,11.37
2018-03-24T00:14:05.227Z,10.67
2018-03-24T00:16:35.054Z,10.40
2018-03-24T00:19:05.478Z,11.50
2018-03-24T00:21:35.287Z,11.20
2018-03-24T00:24:05.099Z,11.80
2018-03-24T00:26:34.904Z,11.33
2018-03-24T00:29:04.717Z,11.70
2018-03-24T00:31:34.533Z,12.10
2018-03-24T00:34:04.346Z,11.77
2018-03-24T00:36:34.155Z,12.33
2018-03-24T00:39:04.786Z,12.07
2018-03-24T00:41:34.609Z,13.03
2018-03-24T00:44:04.413Z,13.23
2018-03-24T00:46:34.224Z,13.50
2018-03-24T00:49:04.037Z,12.53
2018-03-24T00:51:33.852Z,12.07
2018-03-24T00:54:03.670Z,12.43
2018-03-24T00:56:33.587Z,12.97
2018-03-24T00:59:03.462Z,12.63
2018-03-24T01:01:33.303Z,12.97
2018-03-24T01:04:03.219Z,13.57
2018-03-24T01:06:33.143Z,14.43
2018-03-24T01:09:03.063Z,13.23
2018-03-24T01:11:32.863Z,13.97
2018-03-24T01:14:02.685Z,15.43
2018-03-24T01:16:33.078Z,14.73
2018-03-24T01:19:02.922Z,15.60
2018-03-24T01:21:32.832Z,16.03
2018-03-24T01:24:02.755Z,15.97
2018-03-24T01:26:32.775Z,16.50
2018-03-24T01:29:02.589Z,16.20
2018-03-24T01:31:32.861Z,15.50
2018-03-24T01:34:02.714Z,15.37
2018-03-24T01:36:32.532Z,16.77
2018-03-24T01:39:02.345Z,15.90
2018-03-24T01:41:32.257Z,14.20
2018-03-24T01:44:02.068Z,15.37
2018-03-24T01:46:31.882Z,15.87
2018-03-24T01:49:01.689Z,16.67
2018-03-24T01:51:31.506Z,17.10
2018-03-24T01:54:01.312Z,15.53
2018-03-24T01:56:31.127Z,16.87
2018-03-24T01:59:01.050Z,16.00
2018-03-24T02:01:30.861Z,15.87
2018-03-24T02:04:00.670Z,13.63
2018-03-24T02:06:30.482Z,14.40
2018-03-24T02:09:00.292Z,14.13
2018-03-24T02:11:30.111Z,13.53
2018-03-24T02:13:59.925Z,13.87
2018-03-24T02:16:29.732Z,13.93
2018-03-24T02:18:59.545Z,14.70
2018-03-24T02:21:29.360Z,13.97
2018-03-24T02:23:59.272Z,13.67
2018-03-24T02:26:29.107Z,13.93
2018-03-24T02:28:59.006Z,13.87
2018-03-24T02:31:28.823Z,13.67
2018-03-24T02:33:58.737Z,13.37
2018-03-24T02:36:28.547Z,13.37
2018-03-24T02:38:58.465Z,12.77
2018-03-24T02:41:28.380Z,13.50
2018-03-24T02:43:58.160Z,12.67
2018-03-24T02:46:28.005Z,12.50
2018-03-24T02:48:57.790Z,13.63
2018-03-24T02:51:28.135Z,11.73
2018-03-24T02:53:58.056Z,12.43
2018-03-24T02:56:27.856Z,12.33
2018-03-24T02:58:57.676Z,13.43
2018-03-24T03:01:27.484Z,12.73
2018-03-24T03:03:57.302Z,12.73
2018-03-24T03:06:27.229Z,12.73
2018-03-24T03:08:57.026Z,12.93
2018-03-24T03:11:26.833Z,14.20
2018-03-24T03:13:56.551Z,11.63
2018-03-24T03:16:26.366Z,12.47
2018-03-24T03:18:56.378Z,13.00
2018-03-24T03:21:44.935Z,12.97
2018-03-24T03:24:14.844Z,11.53
2018-03-24T03:26:44.678Z,11.57
2018-03-24T03:29:14.575Z,10.47
2018-03-24T03:31:58.210Z,10.63
2018-03-24T03:34:28.027Z,10.73
2018-03-24T03:36:58.493Z,10.43
2018-03-24T03:39:28.264Z,11.00
2018-03-24T03:41:58.073Z,11.27
2018-03-24T03:44:27.897Z,10.70
2018-03-24T03:46:57.805Z,11.13
2018-03-24T03:49:27.612Z,9.67
2018-03-24T03:51:57.398Z,9.87
2018-03-24T03:54:27.245Z,10.47
2018-03-24T03:56:57.059Z,10.23
2018-03-24T03:59:26.870Z,9.93
2018-03-24T04:01:56.677Z,10.63
2018-03-24T04:04:26.486Z,10.60
2018-03-24T04:06:56.305Z,10.43
2018-03-24T04:09:26.111Z,10.73
2018-03-24T04:11:55.924Z,10.57
2018-03-24T04:14:25.745Z,9.57
2018-03-24T04:16:55.557Z,9.83
2018-03-24T04:19:25.438Z,9.80
2018-03-24T04:21:55.175Z,9.60
2018-03-24T04:24:24.997Z,9.13
2018-03-24T04:26:54.918Z,8.60
2018-03-24T04:29:24.774Z,8.70
2018-03-24T04:31:55.144Z,8.60
2018-03-24T04:34:25.061Z,8.60
2018-03-24T04:36:54.868Z,8.63
2018-03-24T04:39:24.681Z,8.93
2018-03-24T04:41:54.606Z,8.40
2018-03-24T04:44:24.412Z,9.23
2018-03-24T04:46:54.224Z,9.00
2018-03-24T04:49:24.058Z,8.97
2018-03-24T04:51:53.954Z,8.73
2018-03-24T04:54:23.718Z,8.83
2018-03-24T04:56:53.533Z,9.27
2018-03-24T04:59:23.391Z,8.70
2018-03-24T05:01:53.203Z,9.90
2018-03-24T05:04:23.010Z,10.17
2018-03-24T05:06:52.733Z,10.40
2018-03-24T05:09:22.731Z,9.93
2018-03-24T05:11:52.551Z,11.10
2018-03-24T05:14:22.362Z,11.57
2018-03-24T05:16:52.179Z,11.53
2018-03-24T05:19:21.992Z,10.80
2018-03-24T05:21:51.810Z,11.40
2018-03-24T05:24:21.599Z,10.27
2018-03-24T05:26:51.425Z,9.97
2018-03-24T05:29:21.247Z,9.10
2018-03-24T05:31:51.059Z,9.60
2018-03-24T05:34:20.967Z,11.93
2018-03-24T05:36:50.778Z,12.67
2018-03-24T05:39:20.607Z,9.73
2018-03-24T05:41:50.409Z,9.90
2018-03-24T05:44:20.216Z,9.93
2018-03-24T05:46:49.987Z,9.53
2018-03-24T05:49:19.853Z,9.67
2018-03-24T05:51:49.659Z,9.30
2018-03-24T05:54:19.468Z,9.83
2018-03-24T05:56:49.281Z,9.77
2018-03-24T05:59:19.099Z,10.73
2018-03-24T06:01:48.795Z,10.90
2018-03-24T06:04:18.621Z,9.77
2018-03-24T06:06:48.438Z,10.90
2018-03-24T06:09:18.346Z,10.53
2018-03-24T06:11:48.172Z,10.53
2018-03-24T06:14:18.077Z,10.00
2018-03-24T06:16:47.920Z,10.43
2018-03-24T06:19:17.804Z,10.43
2018-03-24T06:21:47.615Z,9.80
2018-03-24T06:24:17.424Z,9.90
2018-03-24T06:26:47.239Z,9.67
2018-03-24T06:29:17.048Z,10.10
2018-03-24T06:31:48.811Z,10.10
2018-03-24T06:34:18.632Z,9.97
2018-03-24T06:36:59.290Z,9.47
2018-03-24T06:39:29.097Z,9.57
2018-03-24T06:41:58.916Z,10.27
2018-03-24T06:44:28.826Z,9.13
2018-03-24T06:46:58.649Z,9.00
2018-03-24T06:49:28.565Z,9.27
2018-03-24T06:51:58.373Z,8.93
2018-03-24T06:54:28.286Z,9.97
2018-03-24T06:56:58.103Z,9.40
2018-03-24T06:59:27.968Z,8.83
2018-03-24T07:01:57.822Z,9.23
2018-03-24T07:04:27.591Z,14.10
2018-03-24T07:06:57.444Z,14.83
2018-03-24T07:09:27.269Z,10.27
2018-03-24T07:11:57.180Z,9.73
2018-03-24T07:14:26.986Z,9.37
2018-03-24T07:16:56.796Z,10.57
2018-03-24T07:19:26.612Z,10.10
2018-03-24T07:21:56.988Z,9.77
2018-03-24T07:24:26.857Z,10.00
2018-03-24T07:26:56.557Z,14.53
2018-03-24T07:29:26.376Z,9.23
2018-03-24T07:31:56.188Z,9.43
2018-03-24T07:34:26.008Z,9.07
2018-03-24T07:36:55.818Z,8.57
2018-03-24T07:39:26.241Z,8.80
2018-03-24T07:41:56.055Z,9.43
2018-03-24T07:44:25.865Z,8.70
2018-03-24T07:46:55.679Z,8.70
2018-03-24T07:49:25.494Z,8.73
2018-03-24T07:51:55.308Z,8.80
2018-03-24T07:54:25.256Z,8.67
2018-03-24T07:56:55.027Z,7.87
2018-03-24T07:59:24.794Z,8.23
2018-03-24T08:01:54.610Z,8.67
2018-03-24T08:04:24.484Z,7.73
2018-03-24T08:06:54.384Z,7.20
2018-03-24T08:09:24.503Z,7.97
2018-03-24T08:11:54.393Z,9.17
2018-03-24T08:14:24.124Z,8.60
2018-03-24T08:16:53.902Z,7.90
2018-03-24T08:19:23.623Z,7.87
2018-03-24T08:21:53.375Z,9.23
2018-03-24T08:24:23.144Z,8.53
2018-03-24T08:26:53.073Z,8.73
2018-03-24T08:29:22.841Z,7.97
2018-03-24T08:31:52.551Z,8.37
2018-03-24T08:34:22.240Z,8.77
2018-03-24T08:36:51.993Z,9.03
2018-03-24T08:39:21.716Z,9.17
2018-03-24T08:41:51.403Z,8.10
2018-03-24T08:44:21.159Z,9.00
2018-03-24T08:46:50.891Z,8.40
2018-03-24T08:49:20.615Z,8.57
2018-03-24T08:51:50.357Z,7.50
2018-03-24T08:54:20.201Z,7.50
2018-03-24T08:56:50.016Z,7.80
2018-03-24T08:59:19.841Z,8.03
2018-03-24T09:01:49.571Z,8.50
2018-03-24T09:04:19.334Z,8.37
2018-03-24T09:06:49.043Z,8.17
2018-03-24T09:09:18.768Z,9.03
2018-03-24T09:11:48.481Z,8.40
2018-03-24T09:14:18.189Z,8.93
2018-03-24T09:16:47.945Z,8.47
2018-03-24T09:19:17.650Z,8.53
2018-03-24T09:21:48.210Z,8.43
2018-03-24T09:24:18.217Z,8.57
2018-03-24T09:26:48.387Z,9.83
2018-03-24T09:29:19.510Z,8.80
2018-03-24T09:31:52.040Z,9.07
2018-03-24T09:34:21.731Z,8.83
2018-03-24T09:36:51.442Z,8.00
2018-03-24T09:39:21.774Z,9.00
2018-03-24T09:41:52.082Z,7.60
2018-03-24T09:44:21.809Z,8.10
2018-03-24T09:46:51.579Z,8.10
2018-03-24T09:49:21.359Z,8.50
2018-03-24T09:51:51.154Z,7.70
2018-03-24T09:54:20.896Z,8.67
2018-03-24T09:56:50.652Z,8.40
2018-03-24T09:59:20.497Z,7.67
2018-03-24T10:01:50.204Z,7.17
2018-03-24T10:04:19.958Z,12.17
2018-03-24T10:06:49.725Z,7.37
2018-03-24T10:09:19.474Z,6.00
2018-03-24T10:11:50.062Z,6.43
2018-03-24T10:14:19.810Z,6.47
2018-03-24T10:16:49.579Z,6.10
2018-03-24T10:19:19.356Z,6.00
2018-03-24T10:25:05.255Z,6.00
2018-03-24T10:27:35.010Z,6.13
2018-03-24T10:30:04.742Z,5.13
2018-03-24T10:32:34.517Z,5.60
2018-03-24T10:35:06.142Z,6.00
2018-03-24T10:37:41.618Z,5.63
2018-03-24T10:40:11.412Z,5.70
2018-03-24T10:42:56.045Z,5.80
2018-03-24T10:45:25.792Z,5.53
2018-03-24T10:47:55.540Z,5.80
2018-03-24T10:50:25.262Z,5.70
2018-03-24T10:52:55.013Z,5.97
2018-03-24T10:55:24.810Z,5.27
2018-03-24T10:57:54.980Z,4.87
2018-03-24T11:00:30.295Z,5.13
2018-03-24T11:02:59.977Z,4.57
2018-03-24T11:05:29.726Z,4.27
2018-03-24T11:07:59.489Z,4.70
2018-03-24T11:10:29.156Z,4.87
2018-03-24T11:12:58.909Z,4.70
2018-03-24T11:15:28.664Z,4.80
2018-03-24T11:17:58.430Z,4.60
2018-03-24T11:20:28.291Z,4.33
2018-03-24T11:22:58.096Z,4.60
2018-03-24T11:25:27.789Z,4.03
2018-03-24T11:27:57.535Z,4.67
2018-03-24T11:30:27.339Z,4.97
2018-03-24T11:32:57.144Z,4.63
2018-03-24T11:35:27.061Z,4.13
2018-03-24T11:37:56.873Z,4.37
2018-03-24T11:40:26.784Z,4.10
2018-03-24T11:42:56.600Z,4.20
2018-03-24T11:45:26.415Z,4.50
2018-03-24T11:47:56.226Z,4.40
2018-03-24T11:50:26.028Z,4.97
2018-03-24T11:52:55.850Z,4.90
2018-03-24T11:55:25.611Z,5.47
2018-03-24T11:57:55.374Z,5.63
2018-03-24T12:00:25.183Z,5.47
2018-03-24T12:02:54.987Z,5.50
2018-03-24T12:05:24.802Z,5.53
2018-03-24T12:07:55.187Z,5.10
2018-03-24T12:10:25.055Z,4.90
2018-03-24T12:12:54.852Z,5.50
2018-03-24T12:15:24.671Z,6.50
2018-03-24T12:17:54.588Z,6.30
2018-03-24T12:20:24.396Z,5.47
2018-03-24T12:22:54.313Z,5.80
2018-03-24T12:25:24.122Z,5.13
2018-03-24T12:27:53.934Z,5.60
2018-03-24T12:30:23.752Z,4.60
2018-03-24T12:32:53.560Z,4.73
2018-03-24T12:35:23.372Z,4.80
2018-03-24T12:37:53.186Z,4.73
2018-03-24T12:40:23.099Z,4.60
2018-03-24T12:42:52.922Z,5.10
2018-03-24T12:45:23.441Z,4.57
2018-03-24T12:47:53.198Z,5.10
2018-03-24T12:50:22.934Z,5.47
2018-03-24T12:52:52.780Z,5.60
2018-03-24T12:55:22.597Z,5.13
2018-03-24T12:57:52.404Z,5.20
2018-03-24T13:00:22.221Z,5.10
2018-03-24T13:02:51.946Z,6.57
2018-03-24T13:05:21.744Z,5.63
2018-03-24T13:07:51.650Z,5.87
2018-03-24T13:10:21.468Z,6.07
2018-03-24T13:12:51.282Z,5.80
2018-03-24T13:15:21.090Z,5.70
2018-03-24T13:17:51.115Z,5.30
2018-03-24T13:20:20.875Z,6.13
2018-03-24T13:22:50.735Z,5.37
2018-03-24T13:25:20.548Z,5.10
2018-03-24T13:27:50.354Z,5.37
2018-03-24T13:30:20.274Z,6.00
2018-03-24T13:32:50.089Z,6.07
2018-03-24T13:35:20.002Z,6.07
2018-03-24T13:37:49.820Z,5.70
2018-03-24T13:40:19.639Z,6.00
2018-03-24T13:42:49.458Z,6.20
2018-03-24T13:45:19.250Z,6.43
2018-03-24T13:47:49.164Z,6.10
2018-03-24T13:50:18.984Z,6.80
2018-03-24T13:52:48.889Z,6.13
2018-03-24T13:55:18.811Z,6.43
2018-03-24T13:57:48.617Z,7.30
2018-03-24T14:00:18.536Z,5.80
2018-03-24T14:02:48.352Z,6.37
2018-03-24T14:05:19.088Z,6.40
2018-03-24T14:07:48.890Z,6.53
2018-03-24T14:10:18.810Z,6.40
2018-03-24T14:12:48.582Z,6.37
2018-03-24T14:15:18.441Z,6.63
2018-03-24T14:17:48.249Z,6.07
2018-03-24T14:20:18.056Z,6.30
2018-03-24T14:22:47.981Z,5.73
2018-03-24T14:25:17.778Z,6.03
2018-03-24T14:27:48.224Z,6.10
2018-03-24T14:30:18.542Z,6.03
2018-03-24T14:32:48.441Z,5.57
2018-03-24T14:35:18.268Z,6.10
2018-03-24T14:37:48.098Z,6.13
2018-03-24T14:40:17.893Z,6.77
2018-03-24T14:42:47.709Z,6.50
2018-03-24T14:45:17.520Z,6.33
2018-03-24T14:47:47.327Z,6.30
2018-03-24T14:50:17.248Z,6.23
2018-03-24T14:52:47.051Z,6.93
2018-03-24T14:55:16.863Z,6.70
2018-03-24T14:57:46.684Z,7.30
2018-03-24T15:00:16.500Z,6.03
2018-03-24T15:02:46.405Z,5.90
2018-03-24T15:05:16.223Z,5.83
2018-03-24T15:07:46.143Z,7.10
2018-03-24T15:10:15.955Z,7.10
2018-03-24T15:12:45.870Z,6.40
2018-03-24T15:15:15.788Z,5.47
2018-03-24T15:17:45.596Z,5.80
2018-03-24T15:20:15.411Z,5.43
2018-03-24T15:22:45.223Z,5.70
2018-03-24T15:25:15.029Z,5.67
2018-03-24T15:27:44.944Z,5.93
2018-03-24T15:30:26.640Z,6.03
2018-03-24T15:33:08.118Z,6.30
2018-03-24T15:35:38.034Z,5.73
2018-03-24T15:38:07.843Z,7.03
2018-03-24T15:40:37.612Z,7.20
2018-03-24T15:43:07.368Z,6.90
2018-03-24T15:45:37.220Z,7.40
2018-03-24T15:48:06.942Z,7.53
2018-03-24T15:50:37.278Z,7.80
2018-03-24T15:53:07.136Z,7.07
2018-03-24T15:55:36.954Z,6.93
2018-03-24T15:58:06.861Z,7.33
2018-03-24T16:00:36.901Z,7.40
2018-03-24T16:03:06.694Z,7.53
2018-03-24T16:05:36.626Z,6.50
2018-03-24T16:08:06.419Z,6.60
2018-03-24T16:10:36.334Z,7.23
2018-03-24T16:13:06.145Z,7.27
2018-03-24T16:15:35.956Z,9.57
2018-03-24T16:18:05.839Z,8.53
2018-03-24T16:20:35.680Z,7.97
2018-03-24T16:23:05.604Z,8.53
2018-03-24T16:25:35.411Z,9.30
2018-03-24T16:28:05.332Z,9.60
2018-03-24T16:30:35.149Z,11.43
2018-03-24T16:33:04.958Z,9.47
2018-03-24T16:35:34.862Z,9.73
2018-03-24T16:38:04.684Z,10.43
2018-03-24T16:40:34.496Z,10.33
2018-03-24T16:43:04.337Z,10.07
2018-03-24T16:45:34.223Z,8.93
2018-03-24T16:48:04.035Z,9.83
2018-03-24T16:50:33.850Z,8.50
2018-03-24T16:53:03.672Z,7.47
2018-03-24T16:55:33.473Z,7.50
2018-03-24T16:58:03.254Z,7.80
2018-03-24T17:00:34.102Z,8.50
2018-03-24T17:03:04.038Z,7.40
2018-03-24T17:05:33.846Z,8.13
2018-03-24T17:08:03.769Z,7.47
2018-03-24T17:10:33.577Z,7.77
2018-03-24T17:13:03.388Z,8.33
2018-03-24T17:15:33.268Z,8.77
2018-03-24T17:18:03.118Z,11.17
2018-03-24T17:20:33.028Z,11.40
2018-03-24T17:23:02.842Z,11.20
2018-03-24T17:25:32.651Z,11.43
2018-03-24T17:28:02.426Z,12.47
2018-03-24T17:30:32.288Z,11.87
2018-03-24T17:33:02.092Z,11.80
2018-03-24T17:35:31.914Z,12.87
2018-03-24T17:38:01.817Z,12.67
2018-03-24T17:40:31.636Z,12.80
2018-03-24T17:43:01.448Z,13.50
2018-03-24T17:45:31.459Z,13.37
2018-03-24T17:48:01.288Z,14.80
2018-03-24T17:50:31.293Z,15.93
2018-03-24T17:53:00.985Z,18.10
2018-03-24T17:55:30.921Z,20.43
2018-03-24T17:58:00.835Z,21.80
2018-03-24T18:00:30.650Z,22.60
2018-03-24T18:03:00.465Z,22.07
2018-03-24T18:05:30.268Z,23.43
2018-03-24T18:08:00.199Z,20.97
2018-03-24T18:10:30.000Z,18.63
2018-03-24T18:12:59.816Z,15.57
2018-03-24T18:15:29.623Z,16.93
2018-03-24T18:17:59.442Z,16.80
2018-03-24T18:20:29.709Z,15.13
2018-03-24T18:22:59.576Z,14.53
2018-03-24T18:25:29.392Z,15.20
2018-03-24T18:27:59.202Z,14.60
2018-03-24T18:30:29.010Z,14.90
2018-03-24T18:32:58.820Z,15.00
2018-03-24T18:35:28.742Z,14.27
2018-03-24T18:37:58.558Z,16.13
2018-03-24T18:40:28.376Z,16.10
2018-03-24T18:42:58.179Z,17.50
2018-03-24T18:45:27.994Z,16.03
2018-03-24T18:47:57.770Z,17.83
2018-03-24T18:50:27.615Z,15.47
2018-03-24T18:52:57.434Z,16.10
2018-03-24T18:55:27.243Z,13.80
2018-03-24T18:57:57.061Z,14.33
2018-03-24T19:00:26.982Z,14.00
2018-03-24T19:02:56.795Z,13.77
2018-03-24T19:05:26.590Z,13.83
2018-03-24T19:07:56.404Z,14.73
2018-03-24T19:10:26.233Z,14.60
2018-03-24T19:12:56.097Z,13.40
2018-03-24T19:15:26.055Z,14.10
2018-03-24T19:17:55.961Z,13.03
2018-03-24T19:20:25.778Z,13.30
2018-03-24T19:22:55.695Z,14.40
2018-03-24T19:25:25.425Z,15.63
2018-03-24T19:27:55.316Z,14.43
2018-03-24T19:30:25.243Z,15.33
2018-03-24T19:32:55.046Z,14.60
2018-03-24T19:35:24.862Z,14.40
2018-03-24T19:37:54.673Z,14.83
2018-03-24T19:40:24.485Z,14.13
2018-03-24T19:42:54.303Z,15.17
2018-03-24T19:45:24.126Z,14.33
2018-03-24T19:47:54.030Z,14.13
2018-03-24T19:50:23.794Z,12.27
2018-03-24T19:52:53.650Z,12.53
2018-03-24T19:55:23.464Z,14.37
2018-03-24T19:57:53.372Z,14.73
2018-03-24T20:00:23.192Z,14.50
2018-03-24T20:02:53.004Z,15.07
2018-03-24T20:05:22.917Z,15.03
2018-03-24T20:07:52.741Z,15.20
2018-03-24T20:10:22.640Z,16.33
2018-03-24T20:12:52.452Z,14.90
2018-03-24T20:15:22.265Z,15.60
2018-03-24T20:17:52.088Z,14.77
2018-03-24T20:20:21.793Z,14.13
2018-03-24T20:22:51.714Z,14.53
2018-03-24T20:25:21.627Z,13.33
2018-03-24T20:27:51.640Z,15.00
2018-03-24T20:30:21.453Z,15.43
2018-03-24T20:32:51.362Z,15.47
2018-03-24T20:35:21.178Z,15.53
2018-03-24T20:37:50.994Z,15.07
2018-03-24T20:40:20.808Z,15.80
2018-03-24T20:42:50.626Z,15.87
2018-03-24T20:45:20.533Z,17.10
2018-03-24T20:47:50.347Z,15.57
2018-03-24T20:50:20.263Z,15.53
2018-03-24T20:52:50.082Z,16.03
2018-03-24T20:55:19.900Z,15.03
2018-03-24T20:57:49.709Z,15.17
2018-03-24T21:00:19.512Z,16.53
2018-03-24T21:02:49.422Z,15.60
2018-03-24T21:05:19.233Z,15.63
2018-03-24T21:07:49.062Z,15.57
2018-03-24T21:10:18.871Z,14.53
2018-03-24T21:12:48.669Z,14.87
2018-03-24T21:15:18.450Z,14.97
2018-03-24T21:17:48.310Z,14.20
2018-03-24T21:20:18.218Z,15.83
2018-03-24T21:22:48.030Z,16.27
2018-03-24T21:25:17.840Z,16.03
2018-03-24T21:27:47.756Z,16.43
2018-03-24T21:30:17.675Z,16.17
2018-03-24T21:32:47.481Z,16.27
2018-03-24T21:35:17.290Z,16.83
2018-03-24T21:37:47.101Z,17.07
2018-03-24T21:40:16.918Z,16.53
2018-03-24T21:42:46.733Z,16.27
2018-03-24T21:45:16.542Z,15.30
2018-03-24T21:47:46.461Z,15.90
2018-03-24T21:50:16.369Z,15.60
2018-03-24T21:52:46.291Z,16.33
2018-03-24T21:55:16.106Z,17.47
2018-03-24T21:57:46.012Z,16.40
2018-03-24T22:00:15.936Z,16.73
2018-03-24T22:02:45.747Z,20.43
2018-03-24T22:05:15.521Z,19.20
2018-03-24T22:07:45.620Z,19.13
2018-03-24T22:10:15.462Z,18.17
2018-03-24T22:12:45.299Z,17.27
2018-03-24T22:15:15.122Z,17.33
2018-03-24T22:17:45.015Z,17.67
2018-03-24T22:20:14.843Z,17.50
2018-03-24T22:22:44.659Z,17.90
2018-03-24T22:25:14.571Z,17.93
2018-03-24T22:27:44.375Z,17.97
2018-03-24T22:30:14.290Z,18.60
2018-03-24T22:32:44.114Z,17.07
2018-03-24T22:35:14.021Z,16.97
2018-03-24T22:37:43.836Z,17.00
2018-03-24T22:40:13.751Z,16.97
2018-03-24T22:42:43.564Z,17.17
2018-03-24T22:45:13.276Z,17.07
2018-03-24T22:47:42.990Z,18.47
2018-03-24T22:50:12.796Z,17.43
2018-03-24T22:52:42.816Z,16.37
2018-03-24T22:55:12.631Z,17.97
2018-03-24T22:57:42.434Z,19.87
2018-03-24T23:00:12.361Z,17.83
2018-03-24T23:02:42.435Z,19.47
2018-03-24T23:05:12.475Z,18.47
2018-03-24T23:07:42.314Z,21.07
2018-03-24T23:10:12.212Z,20.10
2018-03-24T23:12:42.033Z,19.87
2018-03-24T23:15:11.950Z,19.60
2018-03-24T23:17:41.964Z,19.60
2018-03-24T23:20:11.976Z,19.77
2018-03-24T23:22:41.859Z,19.67
2018-03-24T23:25:12.424Z,19.03
2018-03-24T23:27:42.243Z,18.23
2018-03-24T23:30:12.029Z,18.10
2018-03-24T23:32:41.861Z,18.83
2018-03-24T23:35:11.669Z,19.23
2018-03-24T23:37:41.585Z,18.63
2018-03-24T23:40:12.906Z,18.10
2018-03-24T23:42:42.761Z,17.43
2018-03-24T23:45:13.991Z,20.20
2018-03-24T23:47:43.810Z,18.17
2018-03-24T23:50:13.721Z,18.03
2018-03-24T23:52:43.533Z,17.50
2018-03-24T23:55:13.452Z,24.27
2018-03-24T23:57:43.261Z,18.40
